sensor_id;sensor_type;location;lat;lon;timestamp;pressure;altitude;pressure_sealevel;temperature;humidity
17615;BME280;8926;49.720;6.576;2023-03-18T00:00:29;99137.16;;;11.67;83.13
17615;BME280;8926;49.720;6.576;2023-03-18T00:02:54;99132.25;;;11.62;82.84
17615;BME280;8926;49.720;6.576;2023-03-18T00:05:20;99133.41;;;11.58;83.54
17615;BME280;8926;49.720;6.576;2023-03-18T00:07:45;99131.84;;;11.55;84.25
17615;BME280;8926;49.720;6.576;2023-03-18T00:10:12;99135.41;;;11.54;85.29
17615;BME280;8926;49.720;6.576;2023-03-18T00:12:39;99133.72;;;11.53;85.17
17615;BME280;8926;49.720;6.576;2023-03-18T00:15:07;99131.84;;;11.55;85.29
17615;BME280;8926;49.720;6.576;2023-03-18T00:17:33;99137.06;;;11.55;84.17
17615;BME280;8926;49.720;6.576;2023-03-18T00:19:59;99137.69;;;11.59;84.31
17615;BME280;8926;49.720;6.576;2023-03-18T00:22:31;99132.25;;;11.62;83.25
17615;BME280;8926;49.720;6.576;2023-03-18T00:24:57;99148.78;;;11.63;82.92
17615;BME280;8926;49.720;6.576;2023-03-18T00:27:22;99148.78;;;11.63;84.15
17615;BME280;8926;49.720;6.576;2023-03-18T00:29:47;99144.50;;;11.62;84.28
17615;BME280;8926;49.720;6.576;2023-03-18T00:32:13;99145.22;;;11.64;84.18
17615;BME280;8926;49.720;6.576;2023-03-18T00:34:39;99145.22;;;11.64;84.26
17615;BME280;8926;49.720;6.576;2023-03-18T00:37:06;99147.09;;;11.62;84.07
17615;BME280;8926;49.720;6.576;2023-03-18T00:39:32;99150.66;;;11.61;83.52
17615;BME280;8926;49.720;6.576;2023-03-18T00:41:58;99149.81;;;11.60;84.21
17615;BME280;8926;49.720;6.576;2023-03-18T00:44:26;99150.03;;;11.57;85.60
17615;BME280;8926;49.720;6.576;2023-03-18T00:46:51;99154.44;;;11.56;84.72
17615;BME280;8926;49.720;6.576;2023-03-18T00:49:16;99152.97;;;11.52;84.43
17615;BME280;8926;49.720;6.576;2023-03-18T00:51:42;99156.31;;;11.54;83.50
17615;BME280;8926;49.720;6.576;2023-03-18T00:54:11;99163.22;;;11.55;83.46
17615;BME280;8926;49.720;6.576;2023-03-18T00:56:38;99158.72;;;11.57;84.82
17615;BME280;8926;49.720;6.576;2023-03-18T00:59:05;99169.19;;;11.57;84.99
17615;BME280;8926;49.720;6.576;2023-03-18T01:01:31;99161.56;;;11.54;85.46
17615;BME280;8926;49.720;6.576;2023-03-18T01:03:57;99165.09;;;11.53;84.58
17615;BME280;8926;49.720;6.576;2023-03-18T01:06:25;99172.97;;;11.53;84.54
17615;BME280;8926;49.720;6.576;2023-03-18T01:08:52;99170.13;;;11.56;84.33
17615;BME280;8926;49.720;6.576;2023-03-18T01:11:18;99177.03;;;11.57;83.64
17615;BME280;8926;49.720;6.576;2023-03-18T01:13:44;99181.22;;;11.60;84.40
17615;BME280;8926;49.720;6.576;2023-03-18T01:16:10;99187.28;;;11.61;84.70
17615;BME280;8926;49.720;6.576;2023-03-18T01:18:36;99174.22;;;11.61;83.49
17615;BME280;8926;49.720;6.576;2023-03-18T01:21:03;99161.13;;;11.61;83.95
17615;BME280;8926;49.720;6.576;2023-03-18T01:23:28;99162.81;;;11.62;83.99
17615;BME280;8926;49.720;6.576;2023-03-18T01:25:55;99155.69;;;11.64;84.03
17615;BME280;8926;49.720;6.576;2023-03-18T01:28:20;99162.81;;;11.62;84.08
17615;BME280;8926;49.720;6.576;2023-03-18T01:30:47;99153.28;;;11.61;83.68
17615;BME280;8926;49.720;6.576;2023-03-18T01:33:15;99155.69;;;11.64;83.31
17615;BME280;8926;49.720;6.576;2023-03-18T01:35:41;99158.41;;;11.62;84.38
17615;BME280;8926;49.720;6.576;2023-03-18T01:38:07;99161.84;;;11.63;83.53
17615;BME280;8926;49.720;6.576;2023-03-18T01:40:34;99154.84;;;11.63;83.59
17615;BME280;8926;49.720;6.576;2023-03-18T01:45:35;99151.50;;;11.61;83.02
17615;BME280;8926;49.720;6.576;2023-03-18T01:48:00;99150.66;;;11.61;82.85
17615;BME280;8926;49.720;6.576;2023-03-18T01:50:34;99157.56;;;11.62;82.66
17615;BME280;8926;49.720;6.576;2023-03-18T01:53:13;99150.66;;;11.61;82.92
17615;BME280;8926;49.720;6.576;2023-03-18T01:55:40;99149.00;;;11.60;81.82
17615;BME280;8926;49.720;6.576;2023-03-18T01:58:10;99147.53;;;11.55;82.54
17615;BME280;8926;49.720;6.576;2023-03-18T02:00:40;99144.19;;;11.53;82.47
17615;BME280;8926;49.720;6.576;2023-03-18T02:03:09;99142.50;;;11.52;81.53
17615;BME280;8926;49.720;6.576;2023-03-18T02:05:34;99152.44;;;11.47;81.98
17615;BME280;8926;49.720;6.576;2023-03-18T02:08:01;99146.72;;;11.42;82.40
17615;BME280;8926;49.720;6.576;2023-03-18T02:10:28;99147.88;;;11.38;81.78
17615;BME280;8926;49.720;6.576;2023-03-18T02:13:01;99148.63;;;11.40;82.33
17615;BME280;8926;49.720;6.576;2023-03-18T02:15:29;99146.94;;;11.39;82.01
17615;BME280;8926;49.720;6.576;2023-03-18T02:18:05;99141.72;;;11.39;82.04
17615;BME280;8926;49.720;6.576;2023-03-18T02:20:57;99148.63;;;11.40;81.64
17615;BME280;8926;49.720;6.576;2023-03-18T02:26:28;99152.78;;;11.30;82.25
17615;BME280;8926;49.720;6.576;2023-03-18T02:28:58;99141.50;;;11.30;81.82
17615;BME280;8926;49.720;6.576;2023-03-18T02:31:30;99146.00;;;11.28;81.57
17615;BME280;8926;49.720;6.576;2023-03-18T02:33:57;99147.97;;;11.24;81.97
17615;BME280;8926;49.720;6.576;2023-03-18T02:36:25;99151.53;;;11.23;81.49
17615;BME280;8926;49.720;6.576;2023-03-18T02:38:55;99157.72;;;11.22;81.98
17615;BME280;8926;49.720;6.576;2023-03-18T02:41:24;99155.31;;;11.19;81.93
17615;BME280;8926;49.720;6.576;2023-03-18T02:43:50;99155.53;;;11.16;82.08
17615;BME280;8926;49.720;6.576;2023-03-18T02:46:40;99153.88;;;11.15;81.67
17615;BME280;8926;49.720;6.576;2023-03-18T02:49:12;99159.31;;;11.12;81.59
17615;BME280;8926;49.720;6.576;2023-03-18T02:51:38;99160.25;;;11.11;81.41
17615;BME280;8926;49.720;6.576;2023-03-18T02:54:09;99164.94;;;11.06;81.49
17615;BME280;8926;49.720;6.576;2023-03-18T02:56:36;99159.91;;;11.03;82.17
17615;BME280;8926;49.720;6.576;2023-03-18T02:59:02;99172.25;;;11.01;82.12
17615;BME280;8926;49.720;6.576;2023-03-18T03:01:28;99165.56;;;10.97;81.81
17615;BME280;8926;49.720;6.576;2023-03-18T03:03:54;99174.34;;;10.96;81.27
17615;BME280;8926;49.720;6.576;2023-03-18T03:06:19;99177.28;;;10.91;82.08
17615;BME280;8926;49.720;6.576;2023-03-18T03:08:45;99174.97;;;10.86;81.33
17615;BME280;8926;49.720;6.576;2023-03-18T03:11:10;99173.28;;;10.85;82.00
17615;BME280;8926;49.720;6.576;2023-03-18T03:13:38;99179.47;;;10.84;81.32
17615;BME280;8926;49.720;6.576;2023-03-18T03:16:05;99192.53;;;10.84;81.05
17615;BME280;8926;49.720;6.576;2023-03-18T03:18:30;99189.81;;;10.86;81.11
17615;BME280;8926;49.720;6.576;2023-03-18T03:20:55;99191.69;;;10.84;81.41
17615;BME280;8926;49.720;6.576;2023-03-18T03:23:21;99192.53;;;10.84;81.09
17615;BME280;8926;49.720;6.576;2023-03-18T03:25:46;99192.72;;;10.81;81.24
17615;BME280;8926;49.720;6.576;2023-03-18T03:28:13;99191.06;;;10.80;81.18
17615;BME280;8926;49.720;6.576;2023-03-18T03:30:38;99194.59;;;10.79;81.07
17615;BME280;8926;49.720;6.576;2023-03-18T03:33:05;99206.94;;;10.77;81.28
17615;BME280;8926;49.720;6.576;2023-03-18T03:35:31;99202.63;;;10.76;80.82
17615;BME280;8926;49.720;6.576;2023-03-18T03:37:56;99204.22;;;10.79;80.39
17615;BME280;8926;49.720;6.576;2023-03-18T03:40:21;99203.38;;;10.78;80.49
17615;BME280;8926;49.720;6.576;2023-03-18T03:42:47;99200.88;;;10.77;80.08
17615;BME280;8926;49.720;6.576;2023-03-18T03:45:14;99208.81;;;10.75;80.38
17615;BME280;8926;49.720;6.576;2023-03-18T03:47:42;99210.88;;;10.70;80.32
17615;BME280;8926;49.720;6.576;2023-03-18T03:50:08;99214.63;;;10.66;80.93
17615;BME280;8926;49.720;6.576;2023-03-18T03:52:35;99216.63;;;10.63;80.80
17615;BME280;8926;49.720;6.576;2023-03-18T03:55:02;99223.81;;;10.59;80.84
17615;BME280;8926;49.720;6.576;2023-03-18T03:57:28;99226.81;;;10.53;79.83
17615;BME280;8926;49.720;6.576;2023-03-18T03:59:54;99223.31;;;10.40;81.39
17615;BME280;8926;49.720;6.576;2023-03-18T04:02:20;99224.84;;;10.30;81.74
17615;BME280;8926;49.720;6.576;2023-03-18T04:04:48;99229.72;;;10.22;82.57
17615;BME280;8926;49.720;6.576;2023-03-18T04:07:14;99235.09;;;10.18;82.10
17615;BME280;8926;49.720;6.576;2023-03-18T04:09:40;99236.03;;;10.17;82.77
17615;BME280;8926;49.720;6.576;2023-03-18T04:12:06;99230.75;;;10.19;82.36
17615;BME280;8926;49.720;6.576;2023-03-18T04:14:32;99236.63;;;10.23;82.48
17615;BME280;8926;49.720;6.576;2023-03-18T04:16:57;99240.16;;;10.22;82.19
17615;BME280;8926;49.720;6.576;2023-03-18T04:19:25;99243.31;;;10.27;81.81
17615;BME280;8926;49.720;6.576;2023-03-18T04:21:51;99241.25;;;10.32;80.94
17615;BME280;8926;49.720;6.576;2023-03-18T04:24:18;99244.41;;;10.37;80.78
17615;BME280;8926;49.720;6.576;2023-03-18T04:26:43;99247.78;;;10.39;80.55
17615;BME280;8926;49.720;6.576;2023-03-18T04:29:08;99239.19;;;10.37;80.28
17615;BME280;8926;49.720;6.576;2023-03-18T04:31:34;99239.38;;;10.34;80.12
17615;BME280;8926;49.720;6.576;2023-03-18T04:33:59;99247.69;;;10.26;80.84
17615;BME280;8926;49.720;6.576;2023-03-18T04:36:25;99251.63;;;10.19;80.56
17615;BME280;8926;49.720;6.576;2023-03-18T04:38:50;99252.00;;;10.13;80.75
17615;BME280;8926;49.720;6.576;2023-03-18T04:41:16;99247.53;;;10.01;81.08
17615;BME280;8926;49.720;6.576;2023-03-18T04:43:41;99255.84;;;9.93;81.47
17615;BME280;8926;49.720;6.576;2023-03-18T04:46:09;99249.22;;;9.87;82.08
17615;BME280;8926;49.720;6.576;2023-03-18T04:48:35;99249.16;;;9.75;82.19
17615;BME280;8926;49.720;6.576;2023-03-18T04:51:00;99241.69;;;9.69;82.23
17615;BME280;8926;49.720;6.576;2023-03-18T04:53:26;99236.84;;;9.63;82.53
17615;BME280;8926;49.720;6.576;2023-03-18T04:55:51;99243.94;;;9.61;82.18
17615;BME280;8926;49.720;6.576;2023-03-18T04:58:17;99246.16;;;9.52;81.23
17615;BME280;8926;49.720;6.576;2023-03-18T05:00:42;99246.72;;;9.43;81.34
17615;BME280;8926;49.720;6.576;2023-03-18T05:03:08;99243.94;;;9.32;82.03
17615;BME280;8926;49.720;6.576;2023-03-18T05:05:33;99249.09;;;9.18;83.78
17615;BME280;8926;49.720;6.576;2023-03-18T05:07:59;99249.53;;;9.10;84.16
17615;BME280;8926;49.720;6.576;2023-03-18T05:10:24;99250.78;;;9.05;83.51
17615;BME280;8926;49.720;6.576;2023-03-18T05:12:50;99249.28;;;9.01;84.84
17615;BME280;8926;49.720;6.576;2023-03-18T05:15:15;99248.69;;;8.96;85.68
17615;BME280;8926;49.720;6.576;2023-03-18T05:17:41;99244.22;;;8.98;85.83
17615;BME280;8926;49.720;6.576;2023-03-18T05:20:08;99248.44;;;9.00;86.29
17615;BME280;8926;49.720;6.576;2023-03-18T05:22:34;99240.69;;;8.99;85.12
17615;BME280;8926;49.720;6.576;2023-03-18T05:24:59;99241.06;;;8.93;86.00
17615;BME280;8926;49.720;6.576;2023-03-18T05:27:25;99248.13;;;8.91;85.18
17615;BME280;8926;49.720;6.576;2023-03-18T05:29:52;99243.06;;;8.88;84.80
17615;BME280;8926;49.720;6.576;2023-03-18T05:32:17;99249.97;;;8.89;84.37
17615;BME280;8926;49.720;6.576;2023-03-18T05:34:43;99255.34;;;8.85;85.87
17615;BME280;8926;49.720;6.576;2023-03-18T05:37:12;99250.34;;;8.82;86.08
17615;BME280;8926;49.720;6.576;2023-03-18T05:39:38;99246.78;;;8.83;86.49
17615;BME280;8926;49.720;6.576;2023-03-18T05:42:04;99252.00;;;8.83;85.72
17615;BME280;8926;49.720;6.576;2023-03-18T05:44:30;99252.38;;;8.77;86.71
17615;BME280;8926;49.720;6.576;2023-03-18T05:46:56;99252.38;;;8.77;84.32
17615;BME280;8926;49.720;6.576;2023-03-18T05:49:21;99246.50;;;8.74;85.56
17615;BME280;8926;49.720;6.576;2023-03-18T05:51:47;99250.84;;;8.73;86.26
17615;BME280;8926;49.720;6.576;2023-03-18T05:54:13;99260.19;;;8.77;86.09
17615;BME280;8926;49.720;6.576;2023-03-18T05:56:38;99261.09;;;8.76;85.71
17615;BME280;8926;49.720;6.576;2023-03-18T05:59:04;99259.91;;;8.82;85.94
17615;BME280;8926;49.720;6.576;2023-03-18T06:01:31;99262.22;;;8.87;84.96
17615;BME280;8926;49.720;6.576;2023-03-18T06:03:57;99262.81;;;8.92;85.43
17615;BME280;8926;49.720;6.576;2023-03-18T06:06:23;99255.25;;;9.17;84.88
17615;BME280;8926;49.720;6.576;2023-03-18T06:08:48;99255.25;;;9.17;85.29
17615;BME280;8926;49.720;6.576;2023-03-18T06:11:14;99254.22;;;9.19;84.32
17615;BME280;8926;49.720;6.576;2023-03-18T06:13:39;99260.28;;;9.20;84.48
17615;BME280;8926;49.720;6.576;2023-03-18T06:16:05;99253.03;;;9.25;84.36
17615;BME280;8926;49.720;6.576;2023-03-18T06:18:31;99266.72;;;9.29;83.93
17615;BME280;8926;49.720;6.576;2023-03-18T06:20:57;99265.13;;;9.26;84.17
17615;BME280;8926;49.720;6.576;2023-03-18T06:23:23;99268.59;;;9.41;84.36
17615;BME280;8926;49.720;6.576;2023-03-18T06:25:48;99272.16;;;10.92;80.25
17615;BME280;8926;49.720;6.576;2023-03-18T06:28:14;99262.38;;;12.09;76.23
17615;BME280;8926;49.720;6.576;2023-03-18T06:30:40;99252.13;;;13.02;74.15
17615;BME280;8926;49.720;6.576;2023-03-18T06:33:05;99261.56;;;13.39;73.65
17615;BME280;8926;49.720;6.576;2023-03-18T06:35:31;99257.78;;;13.99;71.40
17615;BME280;8926;49.720;6.576;2023-03-18T06:37:57;99247.72;;;14.81;69.35
17615;BME280;8926;49.720;6.576;2023-03-18T06:40:22;99247.78;;;15.32;67.73
17615;BME280;8926;49.720;6.576;2023-03-18T06:42:49;99253.94;;;15.01;67.08
17615;BME280;8926;49.720;6.576;2023-03-18T06:45:15;99256.63;;;14.89;67.03
17615;BME280;8926;49.720;6.576;2023-03-18T06:47:41;99260.31;;;15.91;66.06
17615;BME280;8926;49.720;6.576;2023-03-18T06:50:07;99260.47;;;16.49;61.89
17615;BME280;8926;49.720;6.576;2023-03-18T06:52:33;99253.03;;;17.02;61.79
17615;BME280;8926;49.720;6.576;2023-03-18T06:54:58;99256.84;;;17.56;63.76
17615;BME280;8926;49.720;6.576;2023-03-18T06:57:24;99261.78;;;18.43;60.80
17615;BME280;8926;49.720;6.576;2023-03-18T06:59:51;99255.03;;;18.93;54.84
17615;BME280;8926;49.720;6.576;2023-03-18T07:02:16;99257.16;;;19.33;57.94
17615;BME280;8926;49.720;6.576;2023-03-18T07:04:41;99254.34;;;19.35;57.97
17615;BME280;8926;49.720;6.576;2023-03-18T07:07:07;99264.78;;;19.54;54.12
17615;BME280;8926;49.720;6.576;2023-03-18T07:09:32;99253.44;;;20.04;51.76
17615;BME280;8926;49.720;6.576;2023-03-18T07:11:58;99258.53;;;20.31;54.05
17615;BME280;8926;49.720;6.576;2023-03-18T07:14:24;99251.31;;;20.50;51.04
17615;BME280;8926;49.720;6.576;2023-03-18T07:16:50;99253.31;;;20.56;48.72
17615;BME280;8926;49.720;6.576;2023-03-18T07:19:16;99252.22;;;21.31;46.14
17615;BME280;8926;49.720;6.576;2023-03-18T07:21:42;99256.66;;;21.63;49.46
17615;BME280;8926;49.720;6.576;2023-03-18T07:24:08;99274.53;;;20.48;48.48
17615;BME280;8926;49.720;6.576;2023-03-18T07:26:34;99286.41;;;19.06;50.48
17615;BME280;8926;49.720;6.576;2023-03-18T07:28:59;99290.19;;;18.41;53.19
17615;BME280;8926;49.720;6.576;2023-03-18T07:31:25;99291.91;;;16.90;55.74
17615;BME280;8926;49.720;6.576;2023-03-18T07:33:51;99283.16;;;17.19;55.56
17615;BME280;8926;49.720;6.576;2023-03-18T07:36:16;99292.47;;;17.23;54.80
17615;BME280;8926;49.720;6.576;2023-03-18T07:38:42;99292.34;;;17.05;55.97
17615;BME280;8926;49.720;6.576;2023-03-18T07:41:07;99296.63;;;16.68;56.80
17615;BME280;8926;49.720;6.576;2023-03-18T07:43:33;99304.59;;;16.47;57.30
17615;BME280;8926;49.720;6.576;2023-03-18T07:45:59;99301.16;;;16.06;59.05
17615;BME280;8926;49.720;6.576;2023-03-18T07:48:24;99298.00;;;15.82;60.38
17615;BME280;8926;49.720;6.576;2023-03-18T07:50:49;99298.59;;;15.95;58.88
17615;BME280;8926;49.720;6.576;2023-03-18T07:53:15;99305.47;;;16.07;59.31
17615;BME280;8926;49.720;6.576;2023-03-18T07:55:41;99313.94;;;16.20;58.57
17615;BME280;8926;49.720;6.576;2023-03-18T07:58:06;99304.81;;;16.24;57.29
17615;BME280;8926;49.720;6.576;2023-03-18T08:00:33;99307.78;;;16.41;57.95
17615;BME280;8926;49.720;6.576;2023-03-18T08:03:00;99307.59;;;16.23;57.72
17615;BME280;8926;49.720;6.576;2023-03-18T08:05:25;99303.47;;;16.40;57.26
17615;BME280;8926;49.720;6.576;2023-03-18T08:07:51;99304.69;;;16.76;56.19
17615;BME280;8926;49.720;6.576;2023-03-18T08:10:18;99305.56;;;17.15;53.99
17615;BME280;8926;49.720;6.576;2023-03-18T08:12:43;99310.69;;;17.36;52.45
17615;BME280;8926;49.720;6.576;2023-03-18T08:15:09;99300.47;;;17.70;51.83
17615;BME280;8926;49.720;6.576;2023-03-18T08:17:35;99299.34;;;17.82;50.95
17615;BME280;8926;49.720;6.576;2023-03-18T08:20:01;99309.66;;;17.75;51.04
17615;BME280;8926;49.720;6.576;2023-03-18T08:22:26;99301.19;;;17.52;50.28
17615;BME280;8926;49.720;6.576;2023-03-18T08:24:52;99309.41;;;17.20;51.08
17615;BME280;8926;49.720;6.576;2023-03-18T08:27:18;99308.31;;;17.04;50.88
17615;BME280;8926;49.720;6.576;2023-03-18T08:29:43;99314.69;;;16.82;51.86
17615;BME280;8926;49.720;6.576;2023-03-18T08:32:09;99313.88;;;17.01;51.67
17615;BME280;8926;49.720;6.576;2023-03-18T08:34:35;99317.75;;;17.16;50.07
17615;BME280;8926;49.720;6.576;2023-03-18T08:37:00;99319.44;;;17.36;51.21
17615;BME280;8926;49.720;6.576;2023-03-18T08:39:26;99314.41;;;17.52;49.86
17615;BME280;8926;49.720;6.576;2023-03-18T08:41:52;99308.66;;;17.86;49.45
17615;BME280;8926;49.720;6.576;2023-03-18T08:44:17;99310.56;;;18.30;49.13
17615;BME280;8926;49.720;6.576;2023-03-18T08:46:43;99310.34;;;18.14;47.95
17615;BME280;8926;49.720;6.576;2023-03-18T08:49:09;99315.47;;;17.79;48.37
17615;BME280;8926;49.720;6.576;2023-03-18T08:51:36;99314.13;;;17.55;48.44
17615;BME280;8926;49.720;6.576;2023-03-18T08:54:01;99313.56;;;17.42;48.48
17615;BME280;8926;49.720;6.576;2023-03-18T08:56:27;99311.09;;;17.31;49.15
17615;BME280;8926;49.720;6.576;2023-03-18T08:58:52;99314.72;;;17.11;48.63
17615;BME280;8926;49.720;6.576;2023-03-18T09:01:18;99308.88;;;17.07;49.22
17615;BME280;8926;49.720;6.576;2023-03-18T09:03:46;99309.28;;;17.22;48.13
17615;BME280;8926;49.720;6.576;2023-03-18T09:06:12;99302.63;;;17.37;47.69
17615;BME280;8926;49.720;6.576;2023-03-18T09:08:37;99299.13;;;17.27;48.10
17615;BME280;8926;49.720;6.576;2023-03-18T09:11:04;99298.16;;;17.28;48.53
17615;BME280;8926;49.720;6.576;2023-03-18T09:13:29;99300.81;;;17.28;48.18
17615;BME280;8926;49.720;6.576;2023-03-18T09:15:54;99303.88;;;17.33;47.25
17615;BME280;8926;49.720;6.576;2023-03-18T09:18:20;99304.00;;;17.32;46.83
17615;BME280;8926;49.720;6.576;2023-03-18T09:20:47;99293.41;;;17.41;47.62
17615;BME280;8926;49.720;6.576;2023-03-18T09:23:14;99289.91;;;17.60;47.77
17615;BME280;8926;49.720;6.576;2023-03-18T09:25:40;99295.50;;;17.67;46.19
17615;BME280;8926;49.720;6.576;2023-03-18T09:28:09;99298.25;;;17.75;46.49
17615;BME280;8926;49.720;6.576;2023-03-18T09:30:34;99294.56;;;17.95;46.55
17615;BME280;8926;49.720;6.576;2023-03-18T09:32:59;99287.25;;;18.16;45.45
17615;BME280;8926;49.720;6.576;2023-03-18T09:35:26;99291.31;;;18.38;44.47
17615;BME280;8926;49.720;6.576;2023-03-18T09:37:53;99296.22;;;18.51;44.32
17615;BME280;8926;49.720;6.576;2023-03-18T09:40:27;99300.38;;;18.81;44.81
17615;BME280;8926;49.720;6.576;2023-03-18T09:45:28;99297.97;;;18.87;43.23
17615;BME280;8926;49.720;6.576;2023-03-18T09:48:30;99301.00;;;18.92;44.16
17615;BME280;8926;49.720;6.576;2023-03-18T09:53:59;99315.00;;;19.03;42.56
17615;BME280;8926;49.720;6.576;2023-03-18T09:56:31;99304.19;;;19.14;43.20
17615;BME280;8926;49.720;6.576;2023-03-18T09:59:21;99309.59;;;19.30;41.96
17615;BME280;8926;49.720;6.576;2023-03-18T10:01:52;99308.47;;;19.32;41.74
17615;BME280;8926;49.720;6.576;2023-03-18T10:04:24;99312.03;;;19.41;42.01
17615;BME280;8926;49.720;6.576;2023-03-18T10:07:12;99302.19;;;19.51;41.79
17615;BME280;8926;49.720;6.576;2023-03-18T10:09:42;99298.38;;;19.72;41.18
17615;BME280;8926;49.720;6.576;2023-03-18T10:12:41;99309.31;;;19.33;41.18
17615;BME280;8926;49.720;6.576;2023-03-18T10:15:20;99310.66;;;19.37;42.41
17615;BME280;8926;49.720;6.576;2023-03-18T10:17:55;99315.72;;;19.48;41.70
17615;BME280;8926;49.720;6.576;2023-03-18T10:20:31;99308.09;;;19.45;41.72
17615;BME280;8926;49.720;6.576;2023-03-18T10:25:53;99309.97;;;19.79;41.68
17615;BME280;8926;49.720;6.576;2023-03-18T10:33:56;99312.56;;;20.30;40.22
17615;BME280;8926;49.720;6.576;2023-03-18T10:39:12;99313.75;;;20.02;40.42
17615;BME280;8926;49.720;6.576;2023-03-18T10:41:39;99318.63;;;19.37;41.56
17615;BME280;8926;49.720;6.576;2023-03-18T10:44:26;99323.38;;;18.80;42.61
17615;BME280;8926;49.720;6.576;2023-03-18T10:47:43;99326.13;;;18.34;43.51
17615;BME280;8926;49.720;6.576;2023-03-18T10:54:51;99331.06;;;17.43;45.62
17615;BME280;8926;49.720;6.576;2023-03-18T10:57:19;99326.38;;;17.18;46.47
17615;BME280;8926;49.720;6.576;2023-03-18T10:59:49;99325.53;;;16.88;47.23
17615;BME280;8926;49.720;6.576;2023-03-18T11:02:27;99320.50;;;16.76;47.89
17615;BME280;8926;49.720;6.576;2023-03-18T11:05:01;99316.78;;;16.78;48.36
17615;BME280;8926;49.720;6.576;2023-03-18T11:07:28;99322.34;;;16.94;47.43
17615;BME280;8926;49.720;6.576;2023-03-18T11:10:12;99321.63;;;16.92;47.88
17615;BME280;8926;49.720;6.576;2023-03-18T11:12:39;99323.72;;;16.79;48.56
17615;BME280;8926;49.720;6.576;2023-03-18T11:15:09;99330.50;;;16.72;48.40
17615;BME280;8926;49.720;6.576;2023-03-18T11:17:36;99323.00;;;16.68;48.38
17615;BME280;8926;49.720;6.576;2023-03-18T11:22:36;99323.31;;;16.44;49.44
17615;BME280;8926;49.720;6.576;2023-03-18T11:25:14;99326.94;;;16.43;49.42
17615;BME280;8926;49.720;6.576;2023-03-18T11:27:46;99320.63;;;16.24;49.94
17615;BME280;8926;49.720;6.576;2023-03-18T11:30:21;99326.34;;;16.29;49.65
17615;BME280;8926;49.720;6.576;2023-03-18T11:35:45;99320.38;;;16.27;50.03
17615;BME280;8926;49.720;6.576;2023-03-18T11:38:35;99325.91;;;16.24;50.15
17615;BME280;8926;49.720;6.576;2023-03-18T11:41:22;99323.97;;;16.26;50.32
17615;BME280;8926;49.720;6.576;2023-03-18T11:43:56;99322.31;;;16.25;49.91
17615;BME280;8926;49.720;6.576;2023-03-18T11:46:26;99314.22;;;16.17;50.20
17615;BME280;8926;49.720;6.576;2023-03-18T11:48:53;99311.13;;;16.12;50.09
17615;BME280;8926;49.720;6.576;2023-03-18T11:51:58;99307.38;;;16.05;50.22
17615;BME280;8926;49.720;6.576;2023-03-18T11:54:45;99312.34;;;15.99;49.86
17615;BME280;8926;49.720;6.576;2023-03-18T11:57:38;99296.72;;;16.16;49.84
17615;BME280;8926;49.720;6.576;2023-03-18T12:00:26;99290.06;;;16.62;48.91
17615;BME280;8926;49.720;6.576;2023-03-18T12:03:24;99288.03;;;16.75;48.07
17615;BME280;8926;49.720;6.576;2023-03-18T12:17:15;99260.06;;;17.96;46.81
17615;BME280;8926;49.720;6.576;2023-03-18T12:20:04;99258.38;;;17.95;46.17
17615;BME280;8926;49.720;6.576;2023-03-18T12:25:26;99269.34;;;17.63;46.83
17615;BME280;8926;49.720;6.576;2023-03-18T12:34:00;99268.84;;;17.31;47.35
17615;BME280;8926;49.720;6.576;2023-03-18T12:36:39;99274.41;;;17.18;47.44
17615;BME280;8926;49.720;6.576;2023-03-18T12:55:27;99264.91;;;17.54;46.58
17615;BME280;8926;49.720;6.576;2023-03-18T12:58:10;99260.66;;;17.34;47.26
17615;BME280;8926;49.720;6.576;2023-03-18T13:06:08;99254.69;;;17.22;48.01
17615;BME280;8926;49.720;6.576;2023-03-18T13:08:56;99256.91;;;17.27;48.45
17615;BME280;8926;49.720;6.576;2023-03-18T13:13:53;99248.16;;;17.83;47.37
17615;BME280;8926;49.720;6.576;2023-03-18T13:16:21;99253.09;;;17.95;47.18
17615;BME280;8926;49.720;6.576;2023-03-18T13:18:51;99246.41;;;18.01;46.98
17615;BME280;8926;49.720;6.576;2023-03-18T13:21:22;99248.66;;;17.96;47.28
17615;BME280;8926;49.720;6.576;2023-03-18T13:42:57;99235.22;;;17.80;47.93
17615;BME280;8926;49.720;6.576;2023-03-18T13:45:37;99232.00;;;17.86;47.45
17615;BME280;8926;49.720;6.576;2023-03-18T13:48:12;99230.81;;;17.98;48.47
17615;BME280;8926;49.720;6.576;2023-03-18T13:50:42;99231.38;;;18.02;48.01
17615;BME280;8926;49.720;6.576;2023-03-18T13:53:29;99228.09;;;17.90;47.51
17615;BME280;8926;49.720;6.576;2023-03-18T13:58:35;99236.94;;;17.71;47.73
17615;BME280;8926;49.720;6.576;2023-03-18T14:01:27;99237.63;;;17.73;48.45
17615;BME280;8926;49.720;6.576;2023-03-18T14:03:55;99223.50;;;17.65;48.49
17615;BME280;8926;49.720;6.576;2023-03-18T14:17:51;99217.59;;;17.71;48.83
17615;BME280;8926;49.720;6.576;2023-03-18T14:20:23;99211.44;;;17.80;48.06
17615;BME280;8926;49.720;6.576;2023-03-18T14:22:55;99216.75;;;17.80;48.84
17615;BME280;8926;49.720;6.576;2023-03-18T14:25:25;99221.72;;;17.83;48.99
17615;BME280;8926;49.720;6.576;2023-03-18T14:28:09;99217.00;;;17.86;48.21
17615;BME280;8926;49.720;6.576;2023-03-18T14:36:02;99205.84;;;17.92;48.54
17615;BME280;8926;49.720;6.576;2023-03-18T14:38:37;99197.16;;;18.00;48.56
17615;BME280;8926;49.720;6.576;2023-03-18T14:41:26;99201.97;;;18.14;48.81
17615;BME280;8926;49.720;6.576;2023-03-18T14:46:43;99200.00;;;17.89;48.21
17615;BME280;8926;49.720;6.576;2023-03-18T14:49:32;99208.13;;;17.78;49.07
17615;BME280;8926;49.720;6.576;2023-03-18T14:52:02;99200.88;;;17.80;49.65
17615;BME280;8926;49.720;6.576;2023-03-18T14:54:39;99198.94;;;17.82;49.35
17615;BME280;8926;49.720;6.576;2023-03-18T14:57:07;99198.50;;;17.86;48.97
17615;BME280;8926;49.720;6.576;2023-03-18T14:59:33;99185.50;;;17.93;48.78
17615;BME280;8926;49.720;6.576;2023-03-18T15:02:01;99186.88;;;17.97;48.69
17615;BME280;8926;49.720;6.576;2023-03-18T15:04:27;99195.75;;;18.06;48.88
17615;BME280;8926;49.720;6.576;2023-03-18T15:06:54;99195.88;;;18.04;48.52
17615;BME280;8926;49.720;6.576;2023-03-18T15:09:23;99193.53;;;18.01;48.80
17615;BME280;8926;49.720;6.576;2023-03-18T15:11:52;99188.53;;;17.98;48.73
17615;BME280;8926;49.720;6.576;2023-03-18T15:14:26;99187.63;;;17.89;48.82
17615;BME280;8926;49.720;6.576;2023-03-18T15:16:55;99199.41;;;17.95;48.46
17615;BME280;8926;49.720;6.576;2023-03-18T15:19:23;99193.25;;;18.04;48.48